Time;durP1;ratioP1;P1;durP2;ratioP2;P2;SDS_P1;SDS_P2;PMS_P1;PMS_P2;Temp;Humidity;BMP_temperature;BMP_pressure;BME280_temperature;BME280_humidity;BME280_pressure;Samples;Min_cycle;Max_cycle;Signal;HPM_P1;HPM_P2
2022/11/09 00:00:47;;;;;;;4.97;1.40;;;14.20;92.70;;;;;;4999506;28;20123;-76
2022/11/09 00:03:13;;;;;;;3.42;1.00;;;14.20;92.70;;;;;;5032089;28;20503;-75
2022/11/09 00:05:39;;;;;;;8.27;1.40;;;14.20;92.70;;;;;;5015649;28;20018;-76
2022/11/09 00:08:06;;;;;;;5.55;1.23;;;14.20;92.70;;;;;;5031745;28;20017;-77
2022/11/09 00:10:32;;;;;;;7.88;1.65;;;14.20;92.80;;;;;;5015712;28;20025;-76
2022/11/09 00:12:59;;;;;;;8.60;1.63;;;14.20;92.80;;;;;;5015595;28;20477;-76
2022/11/09 00:15:25;;;;;;;3.17;0.90;;;14.20;92.80;;;;;;5034352;28;20028;-76
2022/11/09 00:17:54;;;;;;;5.88;1.52;;;14.20;92.80;;;;;;5033160;28;20043;-76
2022/11/09 00:20:19;;;;;;;6.13;1.27;;;14.20;92.80;;;;;;5051612;28;20032;-76
2022/11/09 00:22:49;;;;;;;7.70;1.30;;;14.20;92.80;;;;;;5052451;28;20041;-76
2022/11/09 00:25:15;;;;;;;7.55;1.60;;;14.20;92.80;;;;;;5035024;28;20037;-77
2022/11/09 00:27:40;;;;;;;8.55;1.80;;;14.20;92.80;;;;;;5018514;28;20116;-76
2022/11/09 00:30:09;;;;;;;7.38;1.80;;;14.20;92.90;;;;;;5018298;28;20056;-77
2022/11/09 00:32:35;;;;;;;6.00;1.15;;;14.20;92.90;;;;;;5035055;28;20021;-77
2022/11/09 00:35:00;;;;;;;6.43;1.20;;;14.20;92.90;;;;;;5035250;28;20025;-76
2022/11/09 00:37:28;;;;;;;4.45;1.27;;;14.20;92.90;;;;;;5035291;28;20041;-76
2022/11/09 00:39:54;;;;;;;6.20;1.15;;;14.20;92.90;;;;;;5035062;28;20033;-76
2022/11/09 00:42:20;;;;;;;7.85;1.55;;;14.30;92.90;;;;;;5035141;28;20031;-77
2022/11/09 00:44:45;;;;;;;5.53;0.88;;;14.20;92.90;;;;;;5018761;28;20433;-77
2022/11/09 00:47:11;;;;;;;4.55;1.15;;;14.10;92.90;;;;;;5002255;28;20017;-76
2022/11/09 00:49:37;;;;;;;8.38;1.52;;;14.20;92.90;;;;;;5035238;28;20021;-75
2022/11/09 00:52:03;;;;;;;7.38;1.70;;;14.20;92.90;;;;;;5002404;28;20388;-76
2022/11/09 00:54:28;;;;;;;5.50;1.42;;;14.20;92.90;;;;;;5035123;28;20079;-75
2022/11/09 00:56:54;;;;;;;5.57;1.40;;;14.10;92.80;;;;;;5035101;28;20108;-75
2022/11/09 00:59:19;;;;;;;6.05;1.10;;;14.10;92.90;;;;;;5052704;28;20029;-75
2022/11/09 01:01:45;;;;;;;4.47;0.90;;;14.10;92.90;;;;;;5035007;28;20025;-75
2022/11/09 01:04:10;;;;;;;7.10;1.30;;;14.10;92.90;;;;;;5035049;28;20030;-75
2022/11/09 01:06:36;;;;;;;5.45;1.02;;;14.20;92.90;;;;;;5002070;28;20556;-76
2022/11/09 01:09:02;;;;;;;6.18;1.13;;;14.20;92.90;;;;;;5018395;28;20029;-75
2022/11/09 01:11:28;;;;;;;5.63;1.13;;;14.20;93.00;;;;;;5034803;28;20381;-75
2022/11/09 01:13:54;;;;;;;5.75;1.45;;;14.20;93.00;;;;;;5052603;28;20040;-75
2022/11/09 01:16:21;;;;;;;5.88;1.10;;;14.20;93.00;;;;;;5052574;28;20044;-75
2022/11/09 01:18:50;;;;;;;5.50;1.08;;;14.10;93.00;;;;;;5034726;28;20111;-75
2022/11/09 01:21:16;;;;;;;5.57;1.42;;;14.20;93.10;;;;;;5036470;28;20082;-75
2022/11/09 01:23:42;;;;;;;4.88;1.33;;;14.20;93.20;;;;;;5005578;28;20029;-74
2022/11/09 01:26:10;;;;;;;6.15;1.30;;;14.20;93.50;;;;;;5056137;28;20501;-74
2022/11/09 01:28:36;;;;;;;4.60;1.00;;;14.20;93.80;;;;;;5038344;28;20079;-74
2022/11/09 01:31:04;;;;;;;8.30;1.63;;;14.20;93.80;;;;;;5038382;28;20024;-74
2022/11/09 01:33:30;;;;;;;6.78;1.05;;;14.10;93.80;;;;;;5056195;28;20039;-74
2022/11/09 01:36:08;;;;;;;10.73;1.60;;;14.10;93.30;;;;;;5038333;28;20029;-73
2022/11/09 01:38:35;;;;;;;4.75;1.23;;;14.10;93.20;;;;;;5038051;28;20068;-75
2022/11/09 01:41:01;;;;;;;4.57;0.90;;;14.10;93.30;;;;;;5038189;28;20508;-74
2022/11/09 01:43:27;;;;;;;6.35;1.30;;;14.10;93.50;;;;;;5054633;28;20041;-75
2022/11/09 01:46:05;;;;;;;4.63;0.80;;;14.10;93.70;;;;;;5055866;28;20039;-75
2022/11/09 01:48:40;;;;;;;4.55;1.15;;;14.10;93.80;;;;;;5055995;28;20025;-74
2022/11/09 01:51:17;;;;;;;4.32;1.00;;;14.00;93.70;;;;;;5054623;28;20029;-75
2022/11/09 01:53:47;;;;;;;6.20;0.70;;;14.10;93.80;;;;;;5038181;28;20385;-75
2022/11/09 01:56:14;;;;;;;4.47;1.00;;;14.10;93.80;;;;;;5037878;28;20040;-75
2022/11/09 01:58:53;;;;;;;5.78;1.23;;;14.10;93.90;;;;;;5021559;28;20025;-75
2022/11/09 02:01:20;;;;;;;6.40;1.40;;;14.10;94.00;;;;;;5055736;28;20108;-81
2022/11/09 02:03:51;;;;;;;6.72;1.52;;;14.00;94.20;;;;;;5055532;28;20034;-81
2022/11/09 02:06:19;;;;;;;7.43;1.33;;;14.00;94.20;;;;;;5037595;28;20017;-83
2022/11/09 02:08:46;;;;;;;4.30;1.20;;;14.00;94.30;;;;;;5037749;28;20132;-82
2022/11/09 02:11:16;;;;;;;4.70;1.33;;;14.00;94.40;;;;;;5055564;28;20028;-82
2022/11/09 02:13:52;;;;;;;5.32;1.15;;;14.00;94.50;;;;;;5055482;28;20036;-81
2022/11/09 02:16:18;;;;;;;8.82;1.50;;;14.10;94.60;;;;;;5055463;28;20033;-82
2022/11/09 02:18:53;;;;;;;8.52;1.30;;;14.00;94.60;;;;;;5055408;28;20033;-81
2022/11/09 02:21:21;;;;;;;5.80;1.35;;;14.00;94.60;;;;;;5055200;28;20033;-82
2022/11/09 02:23:46;;;;;;;5.88;1.30;;;14.00;94.60;;;;;;5037272;28;20074;-81
2022/11/09 02:26:30;;;;;;;5.18;1.27;;;14.00;94.60;;;;;;5037438;28;20116;-82
2022/11/09 02:28:58;;;;;;;5.78;1.40;;;14.00;94.70;;;;;;5055340;28;20028;-82
2022/11/09 02:31:29;;;;;;;6.80;1.17;;;14.00;94.70;;;;;;5054699;28;20017;-81
2022/11/09 02:34:02;;;;;;;6.88;1.27;;;14.00;94.80;;;;;;5055222;28;20025;-83
2022/11/09 02:36:28;;;;;;;3.50;1.05;;;14.00;94.80;;;;;;5055032;28;20436;-82
2022/11/09 02:38:54;;;;;;;8.50;1.67;;;14.00;94.80;;;;;;5020550;28;20155;-82
2022/11/09 02:41:21;;;;;;;4.68;1.40;;;14.00;94.90;;;;;;5054932;28;20142;-82
2022/11/09 02:43:49;;;;;;;4.47;1.15;;;13.90;94.90;;;;;;5020719;28;20032;-81
2022/11/09 02:46:32;;;;;;;8.57;2.22;;;13.90;95.00;;;;;;5037410;28;20583;-82
2022/11/09 02:48:59;;;;;;;6.95;1.02;;;13.90;95.00;;;;;;5054860;28;20070;-81
2022/11/09 02:51:25;;;;;;;6.90;1.20;;;14.00;95.00;;;;;;5054739;28;20049;-82
2022/11/09 02:53:50;;;;;;;6.22;1.40;;;13.90;95.00;;;;;;5054626;28;20110;-81
2022/11/09 02:56:16;;;;;;;7.15;1.30;;;13.90;95.00;;;;;;5036983;28;20063;-81
2022/11/09 02:58:41;;;;;;;6.90;1.38;;;13.90;95.10;;;;;;5020507;28;20111;-81
2022/11/09 03:01:07;;;;;;;6.05;1.38;;;13.90;95.10;;;;;;5036826;28;20511;-81
2022/11/09 03:03:33;;;;;;;4.70;1.50;;;13.90;95.10;;;;;;5036857;28;20556;-81
2022/11/09 03:05:58;;;;;;;7.03;1.55;;;13.90;95.10;;;;;;5020196;28;20027;-84
2022/11/09 03:08:24;;;;;;;7.90;1.58;;;13.90;95.10;;;;;;5053181;28;20025;-83
2022/11/09 03:10:50;;;;;;;9.27;1.05;;;13.80;95.10;;;;;;5019987;28;20029;-82
2022/11/09 03:13:15;;;;;;;2.85;0.90;;;13.80;95.10;;;;;;5036645;28;20477;-81
2022/11/09 03:15:41;;;;;;;10.05;1.50;;;13.80;95.10;;;;;;5019999;28;20024;-82
2022/11/09 03:18:06;;;;;;;5.43;1.30;;;13.80;95.10;;;;;;5036665;28;20032;-82
2022/11/09 03:20:32;;;;;;;5.70;1.10;;;13.80;95.20;;;;;;5036535;28;20465;-82
2022/11/09 03:22:59;;;;;;;6.13;1.35;;;13.80;95.20;;;;;;5054203;28;20032;-82
2022/11/09 03:25:25;;;;;;;3.58;1.00;;;13.70;95.20;;;;;;5019761;28;20051;-83
2022/11/09 03:27:59;;;;;;;6.50;1.00;;;13.70;95.30;;;;;;5036295;28;20017;-82
2022/11/09 03:30:26;;;;;;;7.82;1.55;;;13.80;95.30;;;;;;5036459;28;20112;-82
2022/11/09 03:33:03;;;;;;;9.15;1.50;;;13.70;95.30;;;;;;5036497;28;20036;-82
2022/11/09 03:35:29;;;;;;;6.47;1.25;;;13.80;95.40;;;;;;5054313;28;20457;-82
2022/11/09 03:37:55;;;;;;;5.05;1.00;;;13.80;95.40;;;;;;5020454;28;20083;-81
2022/11/09 03:40:20;;;;;;;6.05;1.10;;;13.80;95.40;;;;;;5052742;28;20032;-81
2022/11/09 03:42:47;;;;;;;9.70;1.98;;;13.70;95.30;;;;;;5035747;28;20029;-82
2022/11/09 03:45:14;;;;;;;6.15;1.27;;;13.80;95.40;;;;;;5035719;28;20025;-82
2022/11/09 03:47:41;;;;;;;6.80;1.42;;;13.70;95.40;;;;;;5053961;28;20108;-82
2022/11/09 03:50:10;;;;;;;6.40;1.20;;;13.70;95.40;;;;;;5035814;28;20081;-82
2022/11/09 03:52:36;;;;;;;6.88;1.13;;;13.70;95.30;;;;;;5052681;28;20029;-82
2022/11/09 03:55:03;;;;;;;8.65;1.70;;;13.70;95.40;;;;;;5035949;28;20048;-82
2022/11/09 03:57:29;;;;;;;7.93;1.38;;;13.70;95.40;;;;;;5035672;28;20067;-82
2022/11/09 03:59:54;;;;;;;4.53;1.23;;;13.60;95.40;;;;;;5053634;28;20053;-82
2022/11/09 04:02:20;;;;;;;7.13;1.67;;;13.60;95.40;;;;;;5035857;28;20445;-82
2022/11/09 04:04:45;;;;;;;6.32;1.70;;;13.60;95.40;;;;;;5052348;28;20064;-83
2022/11/09 04:07:11;;;;;;;8.15;1.42;;;13.60;95.40;;;;;;5053541;28;20056;-81
2022/11/09 04:09:37;;;;;;;5.68;1.30;;;13.60;95.70;;;;;;5019469;28;20021;-81
2022/11/09 04:12:03;;;;;;;5.97;1.10;;;13.50;95.40;;;;;;5053705;28;20047;-82
2022/11/09 04:14:29;;;;;;;12.02;1.30;;;13.50;95.30;;;;;;5053726;28;20580;-82
2022/11/09 04:16:55;;;;;;;6.35;1.23;;;13.50;95.30;;;;;;5035436;28;20112;-82
2022/11/09 04:19:21;;;;;;;7.25;1.63;;;13.50;95.30;;;;;;5035471;28;20036;-82
2022/11/09 04:21:47;;;;;;;7.70;1.15;;;13.40;95.30;;;;;;5035668;28;20515;-82
2022/11/09 04:24:13;;;;;;;6.60;1.23;;;13.40;95.30;;;;;;5051860;28;20057;-82
2022/11/09 04:26:39;;;;;;;10.70;1.95;;;13.30;95.30;;;;;;5035269;28;20021;-82
2022/11/09 04:29:04;;;;;;;7.45;1.20;;;13.30;95.30;;;;;;5018806;28;20079;-82
2022/11/09 04:31:30;;;;;;;7.70;1.45;;;13.20;95.40;;;;;;5053112;28;20029;-82
2022/11/09 04:33:55;;;;;;;5.78;1.02;;;13.30;95.40;;;;;;5018849;28;20492;-83
2022/11/09 04:36:21;;;;;;;6.65;1.42;;;13.30;95.40;;;;;;5019205;28;20531;-82
2022/11/09 04:38:47;;;;;;;7.78;1.40;;;13.20;95.40;;;;;;5051835;28;20031;-82
2022/11/09 04:41:13;;;;;;;7.07;0.93;;;13.10;95.40;;;;;;5035383;28;20382;-83
2022/11/09 04:43:38;;;;;;;7.30;1.27;;;13.10;95.40;;;;;;5035033;28;20029;-82
2022/11/09 04:46:04;;;;;;;6.65;1.10;;;13.10;95.50;;;;;;5035240;28;20351;-82
2022/11/09 04:48:31;;;;;;;10.40;1.63;;;13.10;95.50;;;;;;5018869;28;20017;-82
2022/11/09 04:51:04;;;;;;;6.68;1.20;;;13.00;95.60;;;;;;5053056;28;20017;-82
2022/11/09 04:53:30;;;;;;;10.23;1.80;;;13.00;95.60;;;;;;5052876;28;20116;-82
2022/11/09 04:55:56;;;;;;;7.15;1.23;;;13.00;95.70;;;;;;5055941;28;20437;-82
2022/11/09 04:58:22;;;;;;;6.18;1.00;;;12.90;95.70;;;;;;5056963;28;20389;-83
2022/11/09 05:00:48;;;;;;;5.03;0.90;;;13.00;95.80;;;;;;5057046;28;20029;-82
2022/11/09 05:03:14;;;;;;;10.10;1.20;;;13.00;95.80;;;;;;5022558;28;20445;-82
2022/11/09 05:05:40;;;;;;;10.10;1.83;;;12.90;95.80;;;;;;5056913;28;20063;-82
2022/11/09 05:08:06;;;;;;;8.98;1.48;;;12.90;95.90;;;;;;5022384;28;20117;-81
2022/11/09 05:10:33;;;;;;;9.68;1.75;;;12.90;95.90;;;;;;5022181;28;20056;-83
2022/11/09 05:13:02;;;;;;;9.98;1.02;;;12.90;95.90;;;;;;5022359;28;20036;-82
2022/11/09 05:15:28;;;;;;;5.90;1.00;;;13.00;96.00;;;;;;5038865;28;20021;-79
2022/11/09 05:17:53;;;;;;;6.82;1.27;;;12.90;96.10;;;;;;5022516;28;20035;-80
2022/11/09 05:20:19;;;;;;;11.65;1.10;;;12.90;96.10;;;;;;5039130;28;20465;-81
2022/11/09 05:25:29;;;;;;;9.07;1.25;;;12.80;96.10;;;;;;5056775;28;20056;-80
2022/11/09 05:27:55;;;;;;;8.45;1.02;;;12.80;96.20;;;;;;5038615;28;20384;-80
2022/11/09 05:30:21;;;;;;;5.20;1.52;;;12.80;96.20;;;;;;5056481;28;20021;-80
2022/11/09 05:32:47;;;;;;;9.60;1.83;;;12.80;96.20;;;;;;5038764;28;20033;-80
2022/11/09 05:35:13;;;;;;;6.35;0.90;;;12.70;96.40;;;;;;5056425;28;20032;-81
2022/11/09 05:37:39;;;;;;;5.75;1.00;;;12.70;96.40;;;;;;5038700;28;20083;-80
2022/11/09 05:40:06;;;;;;;10.90;1.92;;;12.70;96.50;;;;;;5038462;28;20024;-81
2022/11/09 05:42:32;;;;;;;6.20;0.98;;;12.70;96.50;;;;;;5038656;28;20028;-80
2022/11/09 05:44:57;;;;;;;13.23;1.45;;;12.70;96.60;;;;;;5056374;28;20025;-79
2022/11/09 05:47:23;;;;;;;6.75;1.13;;;12.60;96.80;;;;;;5039202;28;20043;-80
2022/11/09 05:49:48;;;;;;;8.68;1.00;;;12.60;96.80;;;;;;5038907;28;20025;-80
2022/11/09 05:52:14;;;;;;;6.43;1.30;;;12.60;96.90;;;;;;5038385;28;20072;-80
2022/11/09 05:54:40;;;;;;;10.88;1.30;;;12.60;97.00;;;;;;5056384;28;20028;-80
2022/11/09 05:57:06;;;;;;;6.00;1.25;;;12.50;97.00;;;;;;5038476;28;20029;-79
2022/11/09 05:59:31;;;;;;;8.20;1.02;;;12.50;97.10;;;;;;5032601;28;20033;-80
2022/11/09 06:01:57;;;;;;;13.80;1.45;;;12.50;97.20;;;;;;5034717;28;20124;-80
2022/11/09 06:04:22;;;;;;;6.40;1.20;;;12.50;97.20;;;;;;5049732;28;20043;-79
2022/11/09 06:06:48;;;;;;;7.75;1.10;;;12.40;97.30;;;;;;5007940;28;20116;-80
2022/11/09 06:09:14;;;;;;;8.57;1.50;;;12.40;97.40;;;;;;5049012;28;20421;-80
2022/11/09 06:11:39;;;;;;;7.78;1.63;;;12.40;97.50;;;;;;5004540;28;20044;-80
2022/11/09 06:14:05;;;;;;;12.85;1.67;;;12.40;97.60;;;;;;5054771;28;20017;-80
2022/11/09 06:16:30;;;;;;;5.93;1.15;;;12.30;97.70;;;;;;5055487;28;20090;-80
2022/11/09 06:18:56;;;;;;;11.20;1.10;;;12.30;97.70;;;;;;5055653;28;20031;-80
2022/11/09 06:21:22;;;;;;;8.15;1.50;;;12.30;97.70;;;;;;5021396;28;20061;-80
2022/11/09 06:23:48;;;;;;;8.07;2.30;;;12.30;97.80;;;;;;5055892;28;20068;-80
2022/11/09 06:26:13;;;;;;;7.07;1.40;;;12.20;98.00;;;;;;5055407;28;20450;-80
2022/11/09 06:28:40;;;;;;;10.18;1.45;;;12.20;98.20;;;;;;5005045;28;20055;-79
2022/11/09 06:31:08;;;;;;;10.13;1.50;;;12.20;98.20;;;;;;5055158;28;20029;-80
2022/11/09 06:33:35;;;;;;;8.82;1.40;;;12.20;98.30;;;;;;5037906;28;20102;-79
2022/11/09 06:36:02;;;;;;;9.32;1.27;;;12.20;98.60;;;;;;5053914;28;20040;-79
2022/11/09 06:38:27;;;;;;;8.15;1.23;;;12.20;98.70;;;;;;5042570;28;20077;-80
2022/11/09 06:40:55;;;;;;;11.32;1.60;;;12.20;98.80;;;;;;5031566;28;20131;-80
2022/11/09 06:43:21;;;;;;;9.80;1.48;;;12.20;98.90;;;;;;5065698;28;20025;-80
2022/11/09 06:45:47;;;;;;;10.63;1.75;;;12.20;99.00;;;;;;5025677;28;20021;-80
2022/11/09 06:48:13;;;;;;;11.85;1.50;;;12.20;99.10;;;;;;5009673;28;20400;-81
2022/11/09 06:50:39;;;;;;;14.35;1.67;;;12.20;99.20;;;;;;5028611;28;20030;-80
2022/11/09 06:53:08;;;;;;;8.43;1.75;;;12.20;99.20;;;;;;5030532;28;20551;-80
2022/11/09 06:55:34;;;;;;;8.75;1.58;;;12.20;99.30;;;;;;5024789;28;20158;-80
2022/11/09 06:58:08;;;;;;;8.32;1.52;;;12.20;99.30;;;;;;5030329;28;20064;-80
2022/11/09 07:00:34;;;;;;;14.93;1.93;;;12.20;99.40;;;;;;5041596;28;20111;-81
2022/11/09 07:02:59;;;;;;;12.15;1.55;;;12.20;99.50;;;;;;5040725;28;20108;-81
2022/11/09 07:05:25;;;;;;;8.30;1.20;;;12.20;99.60;;;;;;5040669;28;20525;-81
2022/11/09 07:07:51;;;;;;;9.15;1.67;;;12.20;99.60;;;;;;5067185;28;20111;-80
2022/11/09 07:10:16;;;;;;;7.63;1.17;;;12.00;99.50;;;;;;5020148;28;20029;-81
2022/11/09 07:12:42;;;;;;;10.43;1.50;;;12.20;99.60;;;;;;5054396;28;20031;-80
2022/11/09 07:15:09;;;;;;;13.60;1.80;;;12.20;99.60;;;;;;5054539;28;20033;-80
2022/11/09 07:17:37;;;;;;;9.88;1.40;;;12.10;99.70;;;;;;5054532;28;20425;-81
2022/11/09 07:20:03;;;;;;;12.15;1.90;;;12.10;99.70;;;;;;5036945;28;20358;-82
2022/11/09 07:22:28;;;;;;;16.02;1.65;;;12.10;99.90;;;;;;5019759;28;20091;-81
2022/11/09 07:24:54;;;;;;;11.93;2.05;;;12.10;99.90;;;;;;5054213;28;20036;-82
2022/11/09 07:27:21;;;;;;;9.07;1.25;;;12.10;99.90;;;;;;5036672;28;20045;-81
2022/11/09 07:29:47;;;;;;;12.93;1.98;;;12.10;99.90;;;;;;5036169;28;20062;-82
2022/11/09 07:32:12;;;;;;;9.55;1.52;;;12.10;99.90;;;;;;5019749;28;20083;-82
2022/11/09 07:34:38;;;;;;;14.48;2.60;;;12.20;99.90;;;;;;5036027;28;20029;-81
2022/11/09 07:37:03;;;;;;;10.88;1.58;;;12.20;99.90;;;;;;5054640;28;20372;-81
2022/11/09 07:39:29;;;;;;;15.80;2.03;;;12.20;99.90;;;;;;5053768;28;20041;-80
2022/11/09 07:41:55;;;;;;;10.50;2.03;;;12.20;99.90;;;;;;5019531;28;20043;-82
2022/11/09 07:44:20;;;;;;;13.18;2.20;;;12.20;99.90;;;;;;5036165;28;20381;-82
2022/11/09 07:46:47;;;;;;;12.15;1.63;;;12.20;99.90;;;;;;5019542;28;20021;-82
2022/11/09 07:49:15;;;;;;;9.05;1.30;;;12.20;99.90;;;;;;5053906;28;20083;-82
2022/11/09 07:51:41;;;;;;;11.32;2.58;;;12.30;99.90;;;;;;5019797;28;20032;-81
2022/11/09 07:54:07;;;;;;;7.15;1.55;;;12.30;99.90;;;;;;5032886;28;20484;-81
2022/11/09 07:56:33;;;;;;;10.88;1.35;;;12.30;99.90;;;;;;5073819;28;20493;-82
2022/11/09 07:58:58;;;;;;;14.65;1.75;;;12.30;99.90;;;;;;5056055;28;20032;-81
2022/11/09 08:01:24;;;;;;;11.77;1.75;;;12.40;99.90;;;;;;5039185;28;20541;-81
2022/11/09 08:03:51;;;;;;;11.63;2.03;;;12.40;99.90;;;;;;5055828;28;20498;-81
2022/11/09 08:06:17;;;;;;;7.55;1.40;;;12.40;99.90;;;;;;5053926;28;20388;-81
2022/11/09 08:08:42;;;;;;;11.43;2.08;;;12.40;99.90;;;;;;5042978;28;20032;-81
2022/11/09 08:11:08;;;;;;;10.30;1.77;;;12.40;99.90;;;;;;5032398;28;20113;-81
2022/11/09 08:13:33;;;;;;;10.00;1.63;;;12.40;99.90;;;;;;5061778;28;20040;-82
2022/11/09 08:16:03;;;;;;;6.05;1.48;;;12.40;99.90;;;;;;5033655;28;20033;-81
2022/11/09 08:18:29;;;;;;;9.82;1.83;;;12.50;99.90;;;;;;5021966;28;20502;-82
2022/11/09 08:20:55;;;;;;;10.57;1.58;;;12.50;99.90;;;;;;5033581;28;20100;-81
2022/11/09 08:23:21;;;;;;;13.07;1.85;;;12.50;99.90;;;;;;5032115;28;20178;-81
2022/11/09 08:25:48;;;;;;;11.50;1.75;;;12.60;99.90;;;;;;5033598;28;20053;-82
2022/11/09 08:28:16;;;;;;;12.02;2.00;;;12.60;99.90;;;;;;5033653;28;20497;-82
2022/11/09 08:30:43;;;;;;;10.18;1.73;;;12.70;99.90;;;;;;5032134;28;20448;-82
2022/11/09 08:33:09;;;;;;;11.45;2.10;;;12.70;99.90;;;;;;5015848;28;20029;-81
2022/11/09 08:35:35;;;;;;;10.73;2.08;;;12.70;99.90;;;;;;5033967;28;20064;-82
2022/11/09 08:38:03;;;;;;;11.27;2.10;;;12.70;99.90;;;;;;5057658;28;20086;-81
2022/11/09 08:40:29;;;;;;;10.43;1.52;;;12.80;99.90;;;;;;5064423;28;20036;-82
2022/11/09 08:42:59;;;;;;;10.85;1.88;;;12.80;99.90;;;;;;5064919;28;20465;-82
2022/11/09 08:45:24;;;;;;;8.98;1.30;;;12.90;99.90;;;;;;5049834;28;20086;-82
2022/11/09 08:47:57;;;;;;;9.55;1.63;;;12.90;99.70;;;;;;5022801;28;20465;-82
2022/11/09 08:50:22;;;;;;;11.05;1.55;;;12.90;99.60;;;;;;5073977;28;20048;-83
2022/11/09 08:52:48;;;;;;;14.18;2.55;;;13.00;99.50;;;;;;5055105;28;20075;-82
2022/11/09 08:55:13;;;;;;;10.48;1.70;;;13.10;99.40;;;;;;5054562;28;20059;-84
2022/11/09 08:57:39;;;;;;;8.55;1.90;;;13.10;99.20;;;;;;5037519;28;20464;-77
2022/11/09 09:00:05;;;;;;;15.77;1.67;;;13.20;99.00;;;;;;5053887;28;20040;-77
2022/11/09 09:02:31;;;;;;;15.48;1.80;;;13.20;98.60;;;;;;5038139;28;20032;-77
2022/11/09 09:04:57;;;;;;;16.13;1.60;;;13.30;98.60;;;;;;5072808;28;20487;-77
2022/11/09 09:07:23;;;;;;;12.48;1.95;;;13.40;98.40;;;;;;5038111;28;20041;-77
2022/11/09 09:09:48;;;;;;;11.60;1.33;;;13.50;98.40;;;;;;5072701;28;20518;-77
2022/11/09 09:12:14;;;;;;;10.70;1.65;;;13.60;98.00;;;;;;5021810;28;20032;-77
2022/11/09 09:14:39;;;;;;;9.30;2.03;;;13.80;97.90;;;;;;5072685;28;20025;-77
2022/11/09 09:17:05;;;;;;;11.20;1.40;;;13.90;97.60;;;;;;5054853;28;20086;-77
2022/11/09 09:19:31;;;;;;;12.23;2.17;;;14.00;96.80;;;;;;5054776;28;20492;-77
2022/11/09 09:21:57;;;;;;;7.32;1.15;;;14.10;96.70;;;;;;5038267;28;20033;-77
2022/11/09 09:24:23;;;;;;;11.57;1.95;;;14.20;96.40;;;;;;5072701;28;20121;-77
2022/11/09 09:26:49;;;;;;;9.75;1.58;;;14.20;95.90;;;;;;5038030;28;20067;-78
2022/11/09 09:29:15;;;;;;;10.57;1.58;;;14.40;95.70;;;;;;5072595;28;20071;-77
2022/11/09 09:31:40;;;;;;;11.25;1.45;;;14.60;95.40;;;;;;5038083;28;20028;-77
2022/11/09 09:34:07;;;;;;;7.97;1.20;;;14.80;94.70;;;;;;5071227;28;20443;-77
2022/11/09 09:36:34;;;;;;;14.90;2.25;;;14.90;94.40;;;;;;5054539;28;20044;-78
2022/11/09 09:39:00;;;;;;;9.38;1.30;;;15.10;94.40;;;;;;5037861;28;20033;-77
2022/11/09 09:42:04;;;;;;;10.18;1.08;;;15.40;94.50;;;;;;5038557;28;20051;-76
2022/11/09 09:45:02;;;;;;;9.40;1.40;;;15.80;93.20;;;;;;4978227;28;20026;-77
2022/11/09 09:47:45;;;;;;;6.00;1.10;;;16.00;91.60;;;;;;5058013;28;20016;-77
2022/11/09 09:50:28;;;;;;;6.35;1.27;;;16.40;92.30;;;;;;5069821;28;20012;-76
2022/11/09 09:53:02;;;;;;;9.20;1.10;;;16.80;90.70;;;;;;5052733;28;20046;-77
2022/11/09 09:55:34;;;;;;;9.07;1.38;;;17.20;90.90;;;;;;5041839;28;20021;-77
2022/11/09 09:58:18;;;;;;;8.67;1.30;;;17.20;88.60;;;;;;5041505;28;20037;-78
2022/11/09 10:00:44;;;;;;;;;;;17.20;85.80;;;;;;5038767;28;20048;-78
2022/11/09 10:03:19;;;;;;;7.80;1.73;;;17.20;83.30;;;;;;5037723;28;19912;-77
2022/11/09 10:05:58;;;;;;;8.43;1.25;;;17.20;83.30;;;;;;5037774;28;20017;-77
2022/11/09 10:08:27;;;;;;;13.02;1.48;;;17.30;83.20;;;;;;5055609;28;20540;-77
2022/11/09 10:11:04;;;;;;;10.27;1.73;;;17.50;83.10;;;;;;5055658;28;20025;-76
2022/11/09 10:13:56;;;;;;;8.63;1.20;;;17.50;80.30;;;;;;5037535;28;20092;-77
2022/11/09 10:16:34;;;;;;;8.27;1.58;;;17.40;80.50;;;;;;5055476;28;20025;-78
2022/11/09 10:19:25;;;;;;;7.93;1.13;;;17.30;81.30;;;;;;5055270;28;20025;-78
2022/11/09 10:21:53;;;;;;;6.63;1.10;;;17.60;81.20;;;;;;5055289;28;20503;-75
2022/11/09 10:24:37;;;;;;;7.88;1.10;;;18.00;80.40;;;;;;5037189;28;20025;-77
2022/11/09 10:27:23;;;;;;;9.57;1.35;;;18.30;79.90;;;;;;5037528;28;20041;-77
2022/11/09 10:29:49;;;;;;;7.43;1.85;;;18.40;78.60;;;;;;5057202;28;20112;-79
2022/11/09 10:32:18;;;;;;;10.40;1.60;;;18.30;77.30;;;;;;5057447;28;20020;-79
2022/11/09 10:34:53;;;;;;;7.20;1.35;;;18.20;76.90;;;;;;5075170;28;20099;-77
2022/11/09 10:37:26;;;;;;;11.30;1.65;;;18.00;75.50;;;;;;5074904;28;20020;-77
2022/11/09 10:40:18;;;;;;;9.95;1.48;;;17.90;76.00;;;;;;5075056;28;20027;-77
2022/11/09 10:42:48;;;;;;;6.47;1.10;;;17.80;75.00;;;;;;5074850;28;20028;-77
2022/11/09 10:45:30;;;;;;;6.28;0.93;;;17.80;75.60;;;;;;5075300;28;20025;-85
2022/11/09 10:47:56;;;;;;;9.57;1.23;;;17.70;75.50;;;;;;5075329;28;20071;-85
2022/11/09 10:50:45;;;;;;;7.00;1.30;;;17.60;75.50;;;;;;5075131;28;20072;-85
2022/11/09 10:53:22;;;;;;;10.70;1.55;;;17.60;75.20;;;;;;5074401;28;20032;-85
2022/11/09 10:56:03;;;;;;;7.57;1.45;;;17.50;75.70;;;;;;5073657;28;20025;-86
2022/11/09 10:58:55;;;;;;;7.00;0.80;;;17.60;76.10;;;;;;5058800;28;20092;-81
2022/11/09 11:01:34;;;;;;;8.18;1.30;;;17.50;75.10;;;;;;5075386;28;20098;-86
2022/11/09 11:04:19;;;;;;;7.55;1.42;;;17.60;76.30;;;;;;5058903;28;20027;-86
2022/11/09 11:06:44;;;;;;;7.00;1.08;;;17.90;76.30;;;;;;5075128;28;20017;-85
2022/11/09 11:09:10;;;;;;;7.32;1.13;;;17.90;75.10;;;;;;5018012;28;20377;-83
2022/11/09 11:11:37;;;;;;;8.30;1.63;;;17.70;74.30;;;;;;5027926;28;20025;-84
2022/11/09 11:14:40;;;;;;;5.72;0.88;;;17.50;74.60;;;;;;5034953;28;20016;-85
2022/11/09 11:17:24;;;;;;;11.20;1.33;;;17.10;75.40;;;;;;5013952;28;20036;-85
2022/11/09 11:19:50;;;;;;;8.60;1.20;;;16.90;76.10;;;;;;5045162;28;20026;-85
2022/11/09 11:22:21;;;;;;;10.25;1.08;;;16.80;76.30;;;;;;5017296;28;20283;-84
2022/11/09 11:24:53;;;;;;;7.15;1.00;;;16.60;76.90;;;;;;5044118;28;20091;-84
2022/11/09 11:27:23;;;;;;;8.73;1.17;;;16.50;77.20;;;;;;5044464;28;20048;-83
2022/11/09 11:29:56;;;;;;;8.55;1.17;;;16.40;77.30;;;;;;5045604;28;20028;-84
2022/11/09 11:32:23;;;;;;;7.28;1.58;;;16.20;78.10;;;;;;5058772;28;20461;-83
2022/11/09 11:34:49;;;;;;;11.68;1.50;;;16.20;77.70;;;;;;5031024;28;20021;-84
2022/11/09 11:37:38;;;;;;;6.53;1.38;;;16.30;78.50;;;;;;5055950;28;20034;-85
2022/11/09 11:40:19;;;;;;;7.82;1.38;;;16.90;79.10;;;;;;5055819;28;20112;-85
2022/11/09 11:43:21;;;;;;;6.70;1.13;;;17.30;76.40;;;;;;5055798;28;20063;-83
2022/11/09 11:46:01;;;;;;;8.10;1.30;;;17.30;74.70;;;;;;5073642;28;20374;-83
2022/11/09 11:48:42;;;;;;;5.75;0.88;;;17.10;74.60;;;;;;5055790;28;20358;-83
2022/11/09 11:51:29;;;;;;;6.28;1.08;;;17.30;75.70;;;;;;5055965;28;20028;-85
2022/11/09 11:54:05;;;;;;;9.45;1.02;;;17.40;74.90;;;;;;5055282;28;20136;-82
2022/11/09 11:56:58;;;;;;;6.20;1.40;;;17.40;73.90;;;;;;5073793;28;20029;-85
2022/11/09 11:59:32;;;;;;;6.63;0.98;;;17.30;74.10;;;;;;5055797;28;20032;-85
2022/11/09 12:02:31;;;;;;;8.15;1.20;;;17.10;74.50;;;;;;5055693;28;20028;-83
2022/11/09 12:05:21;;;;;;;9.38;1.10;;;17.00;74.40;;;;;;5056057;28;20052;-83
2022/11/09 12:07:53;;;;;;;11.00;1.35;;;16.90;74.50;;;;;;5047045;28;20036;-84
2022/11/09 12:10:52;;;;;;;10.90;1.48;;;16.70;74.30;;;;;;5052547;28;20032;-83
2022/11/09 12:13:46;;;;;;;4.10;0.70;;;16.60;74.70;;;;;;5051853;28;20037;-82
2022/11/09 12:16:34;;;;;;;6.25;1.05;;;16.70;75.20;;;;;;5073380;28;20078;-83
2022/11/09 12:19:21;;;;;;;8.07;1.00;;;16.50;75.10;;;;;;5055282;28;20036;-82
2022/11/09 12:22:12;;;;;;;5.90;1.05;;;16.90;76.20;;;;;;5055394;28;20415;-85
2022/11/09 12:25:10;;;;;;;5.03;0.88;;;17.60;76.60;;;;;;5055211;28;20032;-84
2022/11/09 12:27:55;;;;;;;6.22;1.13;;;18.10;74.00;;;;;;5058697;28;20102;-84
2022/11/09 12:30:25;;;;;;;6.60;1.02;;;18.40;73.10;;;;;;5053564;28;20032;-84
2022/11/09 12:33:03;;;;;;;4.55;0.80;;;18.70;71.80;;;;;;5035693;28;20550;-82
2022/11/09 12:35:37;;;;;;;7.65;0.85;;;18.70;71.10;;;;;;5053276;28;20037;-83
2022/11/09 12:38:17;;;;;;;5.10;1.02;;;18.60;70.20;;;;;;5036103;28;20025;-82
2022/11/09 12:41:09;;;;;;;5.75;0.90;;;18.50;70.40;;;;;;5035569;28;20116;-84
2022/11/09 12:43:59;;;;;;;6.88;1.20;;;18.30;70.40;;;;;;5035318;28;20021;-83
2022/11/09 12:46:38;;;;;;;9.98;1.30;;;18.00;70.10;;;;;;5035146;28;20381;-81
2022/11/09 12:49:04;;;;;;;5.65;0.90;;;17.70;70.30;;;;;;5053374;28;20017;-82
2022/11/09 12:51:32;;;;;;;7.72;1.05;;;17.50;71.20;;;;;;5035451;28;20017;-83
2022/11/09 12:54:08;;;;;;;7.30;1.00;;;17.40;72.00;;;;;;5061598;28;20096;-81
2022/11/09 12:56:39;;;;;;;7.28;0.93;;;17.80;73.10;;;;;;5064366;28;20021;-84
2022/11/09 12:59:27;;;;;;;6.38;0.82;;;18.60;73.00;;;;;;5045906;28;20013;-85
2022/11/09 13:02:00;;;;;;;7.00;1.13;;;19.30;71.20;;;;;;5042350;28;20135;-85